Munin Explorer — C4XX2 — position and weather

sailwx.info

Track history (hours):
 
Tides and Currents Weather Stations Pressure Air Temp Water Temp Dewpoint Dewpoint Depression Visibility Wind Speed Wind Dir Waves Ship Positions

Munin Explorer

Last reported at 2018-Apr-24 12:30 UTC. Time now 2018-Apr-24 12:48 UTC.
Position N 51°14' E 002°04'.

Length 60 m; draft 6.9 m.

Type: Other ship. MMSI: 210228000.

Date/timePositionNaut miles runAvg speedWind from/ knotsBaromVisibWave heightAir tempDewpointWater temp
2018-Apr-24 12:30N 51°14' E 002°04'4 8.4
2018-Apr-24 12:01N 51°12' E 001°59'4 8.7
2018-Apr-24 11:30N 51°10' E 001°53'4 8.9
2018-Apr-24 11:00N 51°08' E 001°47'4 8.9
2018-Apr-24 10:30N 51°05' E 001°41'5 9.3
2018-Apr-24 10:00N 51°01' E 001°36'5 9.6
2018-Apr-24 09:30N 50°58' E 001°31'57 9.1
2018-Apr-24 03:12N 50°23' E 000°19'210.7
2018-Apr-24 02:59N 50°22' E 000°16'810.7
2018-Apr-24 02:12N 50°20' E 000°03'210.5
2018-Apr-24 02:00N 50°19' W 000°00'610.3
2018-Apr-24 01:25N 50°18' W 000°09'410.2
2018-Apr-24 00:59N 50°17' W 000°16'24 9.1
2018-Apr-23 22:18N 50°10' W 000°53'9 7.6
2018-Apr-23 21:04N 50°08' W 001°07'1 7.1
2018-Apr-23 20:59N 50°08' W 001°08'3 7.0
2018-Apr-23 20:30N 50°07' W 001°13'3 7.0
2018-Apr-23 20:01N 50°06' W 001°18'3 6.7
2018-Apr-23 19:30N 50°05' W 001°23'4 7.0
2018-Apr-23 19:00N 50°04' W 001°29'4 7.3
2018-Apr-23 18:30N 50°03' W 001°34'4 7.6
2018-Apr-23 18:00N 50°02' W 001°40'4 8.0
2018-Apr-23 17:31N 50°01' W 001°46'4 8.7
2018-Apr-23 17:00N 49°60' W 001°52'7 9.4
2018-Apr-23 16:18N 49°58' W 002°02'2610.3
2018-Apr-23 13:46N 49°51' W 002°41'2 8.6
2018-Apr-23 13:30N 49°50' W 002°45'13 8.1
2018-Apr-23 11:57N 49°47' W 003°03'5 8.3
2018-Apr-23 11:21N 49°45' W 003°11'4 8.2
2018-Apr-23 10:54N 49°44' W 003°16'  
2018-Apr-16 20:09N 36°26' W 023°39'1 7.0
2018-Apr-16 20:01N 36°25' W 023°40'3 6.8
2018-Apr-16 19:30N 36°23' W 023°43'3 6.7
2018-Apr-16 19:00N 36°21' W 023°47'2 3.8
2018-Apr-16 18:28N 36°21' W 023°49'2 3.5
2018-Apr-16 18:00N 36°20' W 023°51'2 3.4
2018-Apr-16 17:30N 36°20' W 023°53'2 3.3
2018-Apr-16 17:00N 36°20' W 023°55'2 3.3
2018-Apr-16 16:30N 36°20' W 023°57'2 3.3
2018-Apr-16 16:00N 36°20' W 023°59'2 3.1
2018-Apr-16 15:30N 36°20' W 024°01'2 3.2
2018-Apr-16 14:59N 36°20' W 024°03'1 3.1
2018-Apr-16 14:30N 36°20' W 024°05'1 2.9
2018-Apr-16 14:00N 36°21' W 024°07'1 2.8
2018-Apr-16 13:30N 36°21' W 024°08'1 2.8
2018-Apr-16 13:00N 36°22' W 024°10'1 2.7
2018-Apr-16 12:30N 36°22' W 024°12'1 2.8
2018-Apr-16 12:00N 36°23' W 024°13'1 2.8
2018-Apr-16 11:30N 36°23' W 024°15'1 2.8
2018-Apr-16 11:00N 36°24' W 024°16'1 2.6
2018-Apr-16 10:30N 36°24' W 024°18'1 2.8
2018-Apr-16 10:00N 36°25' W 024°19'1 2.9
2018-Apr-16 09:31N 36°25' W 024°21'1 2.6
2018-Apr-16 09:00N 36°26' W 024°22'1 2.7
2018-Apr-16 08:30N 36°27' W 024°24'1 2.6
2018-Apr-16 08:00N 36°28' W 024°25'1 2.8
2018-Apr-16 07:30N 36°28' W 024°27'2 3.3
2018-Apr-16 07:00N 36°29' W 024°28'2 3.2
2018-Apr-16 06:30N 36°30' W 024°30'2 3.2
2018-Apr-16 06:00N 36°32' W 024°30'1 2.8
2018-Apr-16 05:30N 36°33' W 024°28'1 2.9
2018-Apr-16 05:00N 36°34' W 024°27'1 2.7
2018-Apr-16 04:30N 36°35' W 024°26'1 3.0
2018-Apr-16 04:00N 36°36' W 024°25'2 3.1
2018-Apr-16 03:30N 36°37' W 024°23'2 3.1
2018-Apr-16 03:00N 36°38' W 024°22'2 3.4
2018-Apr-16 02:30N 36°39' W 024°20'2 4.2
2018-Apr-16 02:00N 36°41' W 024°18'2 4.0
2018-Apr-16 01:30N 36°42' W 024°17'2 4.5
2018-Apr-16 01:00N 36°43' W 024°14'2 4.9
2018-Apr-16 00:30N 36°45' W 024°12'3 5.8
2018-Apr-16 00:00N 36°47' W 024°09'3 5.9
2018-Apr-15 23:30N 36°49' W 024°06'3 5.7
2018-Apr-15 23:00N 36°50' W 024°04'3 5.8
2018-Apr-15 22:30N 36°52' W 024°01'3 6.0
2018-Apr-15 22:00N 36°54' W 023°58'3 6.0
2018-Apr-15 21:30N 36°56' W 023°55'3 5.8
2018-Apr-15 21:00N 36°58' W 023°52'3 5.8
2018-Apr-15 20:30N 36°60' W 023°50'3 5.7
2018-Apr-15 19:59N 37°02' W 023°47'3 5.9
2018-Apr-15 19:30N 37°04' W 023°44'3 5.9
2018-Apr-15 18:55N 37°06' W 023°41'3 5.9
2018-Apr-15 18:22N 37°08' W 023°38'  
Track history (hours):
 
Tides and Currents Weather Stations Pressure Air Temp Water Temp Dewpoint Dewpoint Depression Visibility Wind Speed Wind Dir Waves Ship Positions

Munin Explorer

Last reported at 2018-Apr-24 12:30 UTC. Time now 2018-Apr-24 12:48 UTC.
Position N 51°14' E 002°04'.

Length 60 m; draft 6.9 m.

Type: Other ship. MMSI: 210228000.

Date/timePositionNaut miles runAvg speedWind from/ knotsBaromVisibWave heightAir tempDewpointWater temp
2018-Apr-24 12:30N 51°14' E 002°04'4 8.4
2018-Apr-24 12:01N 51°12' E 001°59'4 8.7
2018-Apr-24 11:30N 51°10' E 001°53'4 8.9
2018-Apr-24 11:00N 51°08' E 001°47'4 8.9
2018-Apr-24 10:30N 51°05' E 001°41'5 9.3
2018-Apr-24 10:00N 51°01' E 001°36'5 9.6
2018-Apr-24 09:30N 50°58' E 001°31'57 9.1
2018-Apr-24 03:12N 50°23' E 000°19'210.7
2018-Apr-24 02:59N 50°22' E 000°16'810.7
2018-Apr-24 02:12N 50°20' E 000°03'210.5
2018-Apr-24 02:00N 50°19' W 000°00'610.3
2018-Apr-24 01:25N 50°18' W 000°09'410.2
2018-Apr-24 00:59N 50°17' W 000°16'24 9.1
2018-Apr-23 22:18N 50°10' W 000°53'9 7.6
2018-Apr-23 21:04N 50°08' W 001°07'1 7.1
2018-Apr-23 20:59N 50°08' W 001°08'3 7.0
2018-Apr-23 20:30N 50°07' W 001°13'3 7.0
2018-Apr-23 20:01N 50°06' W 001°18'3 6.7
2018-Apr-23 19:30N 50°05' W 001°23'4 7.0
2018-Apr-23 19:00N 50°04' W 001°29'4 7.3
2018-Apr-23 18:30N 50°03' W 001°34'4 7.6
2018-Apr-23 18:00N 50°02' W 001°40'4 8.0
2018-Apr-23 17:31N 50°01' W 001°46'4 8.7
2018-Apr-23 17:00N 49°60' W 001°52'7 9.4
2018-Apr-23 16:18N 49°58' W 002°02'2610.3
2018-Apr-23 13:46N 49°51' W 002°41'2 8.6
2018-Apr-23 13:30N 49°50' W 002°45'13 8.1
2018-Apr-23 11:57N 49°47' W 003°03'5 8.3
2018-Apr-23 11:21N 49°45' W 003°11'4 8.2
2018-Apr-23 10:54N 49°44' W 003°16'  
2018-Apr-16 20:09N 36°26' W 023°39'1 7.0
2018-Apr-16 20:01N 36°25' W 023°40'3 6.8
2018-Apr-16 19:30N 36°23' W 023°43'3 6.7
2018-Apr-16 19:00N 36°21' W 023°47'2 3.8
2018-Apr-16 18:28N 36°21' W 023°49'2 3.5
2018-Apr-16 18:00N 36°20' W 023°51'2 3.4
2018-Apr-16 17:30N 36°20' W 023°53'2 3.3
2018-Apr-16 17:00N 36°20' W 023°55'2 3.3
2018-Apr-16 16:30N 36°20' W 023°57'2 3.3
2018-Apr-16 16:00N 36°20' W 023°59'2 3.1
2018-Apr-16 15:30N 36°20' W 024°01'2 3.2
2018-Apr-16 14:59N 36°20' W 024°03'1 3.1
2018-Apr-16 14:30N 36°20' W 024°05'1 2.9
2018-Apr-16 14:00N 36°21' W 024°07'1 2.8
2018-Apr-16 13:30N 36°21' W 024°08'1 2.8
2018-Apr-16 13:00N 36°22' W 024°10'1 2.7
2018-Apr-16 12:30N 36°22' W 024°12'1 2.8
2018-Apr-16 12:00N 36°23' W 024°13'1 2.8
2018-Apr-16 11:30N 36°23' W 024°15'1 2.8
2018-Apr-16 11:00N 36°24' W 024°16'1 2.6
2018-Apr-16 10:30N 36°24' W 024°18'1 2.8
2018-Apr-16 10:00N 36°25' W 024°19'1 2.9
2018-Apr-16 09:31N 36°25' W 024°21'1 2.6
2018-Apr-16 09:00N 36°26' W 024°22'1 2.7
2018-Apr-16 08:30N 36°27' W 024°24'1 2.6
2018-Apr-16 08:00N 36°28' W 024°25'1 2.8
2018-Apr-16 07:30N 36°28' W 024°27'2 3.3
2018-Apr-16 07:00N 36°29' W 024°28'2 3.2
2018-Apr-16 06:30N 36°30' W 024°30'2 3.2
2018-Apr-16 06:00N 36°32' W 024°30'1 2.8
2018-Apr-16 05:30N 36°33' W 024°28'1 2.9
2018-Apr-16 05:00N 36°34' W 024°27'1 2.7
2018-Apr-16 04:30N 36°35' W 024°26'1 3.0
2018-Apr-16 04:00N 36°36' W 024°25'2 3.1
2018-Apr-16 03:30N 36°37' W 024°23'2 3.1
2018-Apr-16 03:00N 36°38' W 024°22'2 3.4
2018-Apr-16 02:30N 36°39' W 024°20'2 4.2
2018-Apr-16 02:00N 36°41' W 024°18'2 4.0
2018-Apr-16 01:30N 36°42' W 024°17'2 4.5
2018-Apr-16 01:00N 36°43' W 024°14'2 4.9
2018-Apr-16 00:30N 36°45' W 024°12'3 5.8
2018-Apr-16 00:00N 36°47' W 024°09'3 5.9
2018-Apr-15 23:30N 36°49' W 024°06'3 5.7
2018-Apr-15 23:00N 36°50' W 024°04'3 5.8
2018-Apr-15 22:30N 36°52' W 024°01'3 6.0
2018-Apr-15 22:00N 36°54' W 023°58'3 6.0
2018-Apr-15 21:30N 36°56' W 023°55'3 5.8
2018-Apr-15 21:00N 36°58' W 023°52'3 5.8
2018-Apr-15 20:30N 36°60' W 023°50'3 5.7
2018-Apr-15 19:59N 37°02' W 023°47'3 5.9
2018-Apr-15 19:30N 37°04' W 023°44'3 5.9
2018-Apr-15 18:55N 37°06' W 023°41'3 5.9
2018-Apr-15 18:22N 37°08' W 023°38'  

Dump ship's entire track history